Map

Track Data

SID SEASON NUMBER BASIN SUBBASIN NAME ISO_TIME NATURE LAT LON WMO_WIND WMO_PRES WMO_AGENCY TRACK_TYPE DIST2LAND LANDFALL IFLAG USA_AGENCY USA_ATCF_ID USA_LAT USA_LON USA_RECORD USA_STATUS USA_WIND USA_PRES USA_SSHS USA_R34_NE USA_R34_SE USA_R34_SW USA_R34_NW USA_R50_NE USA_R50_SE USA_R50_SW USA_R50_NW USA_R64_NE USA_R64_SE USA_R64_SW USA_R64_NW USA_POCI USA_ROCI USA_RMW USA_EYE TOKYO_LAT TOKYO_LON TOKYO_GRADE TOKYO_WIND TOKYO_PRES TOKYO_R50_DIR TOKYO_R50_LONG TOKYO_R50_SHORT TOKYO_R30_DIR TOKYO_R30_LONG TOKYO_R30_SHORT TOKYO_LAND CMA_LAT CMA_LON CMA_CAT CMA_WIND CMA_PRES HKO_LAT HKO_LON HKO_CAT HKO_WIND HKO_PRES NEWDELHI_LAT NEWDELHI_LON NEWDELHI_GRADE NEWDELHI_WIND NEWDELHI_PRES NEWDELHI_CI NEWDELHI_DP NEWDELHI_POCI REUNION_LAT REUNION_LON REUNION_TYPE REUNION_WIND REUNION_PRES REUNION_TNUM REUNION_CI REUNION_RMW REUNION_R34_NE REUNION_R34_SE REUNION_R34_SW REUNION_R34_NW REUNION_R50_NE REUNION_R50_SE REUNION_R50_SW REUNION_R50_NW REUNION_R64_NE REUNION_R64_SE REUNION_R64_SW REUNION_R64_NW BOM_LAT BOM_LON BOM_TYPE BOM_WIND BOM_PRES BOM_TNUM BOM_CI BOM_RMW BOM_R34_NE BOM_R34_SE BOM_R34_SW BOM_R34_NW BOM_R50_NE BOM_R50_SE BOM_R50_SW BOM_R50_NW BOM_R64_NE BOM_R64_SE BOM_R64_SW BOM_R64_NW BOM_ROCI BOM_POCI BOM_EYE BOM_POS_METHOD BOM_PRES_METHOD NADI_LAT NADI_LON NADI_CAT NADI_WIND NADI_PRES WELLINGTON_LAT WELLINGTON_LON WELLINGTON_WIND WELLINGTON_PRES DS824_LAT DS824_LON DS824_STAGE DS824_WIND DS824_PRES TD9636_LAT TD9636_LON TD9636_STAGE TD9636_WIND TD9636_PRES TD9635_LAT TD9635_LON TD9635_WIND TD9635_PRES TD9635_ROCI NEUMANN_LAT NEUMANN_LON NEUMANN_CLASS NEUMANN_WIND NEUMANN_PRES MLC_LAT MLC_LON MLC_CLASS MLC_WIND MLC_PRES USA_GUST BOM_GUST BOM_GUST_PER REUNION_GUST REUNION_GUST_PER USA_SEAHGT USA_SEARAD_NE USA_SEARAD_SE USA_SEARAD_SW USA_SEARAD_NW STORM_SPEED STORM_DIR
1971247N28273 1971 108 NA GM FERN 1971-09-03 12:00:00 TS 27.5000 -87.5000 25 hurdat_atl main 229 214 O_____________ hurdat_atl AL111971 27.5000 -87.5000 TD 25 -1 2 314
1971247N28273 1971 108 NA GM FERN 1971-09-03 15:00:00 TS 27.5875 -87.5975 main 214 199 P_____________ AL111971 27.5875 -87.5975 TD 25 -1 3 318
1971247N28273 1971 108 NA GM FERN 1971-09-03 18:00:00 TS 27.7000 -87.7000 25 hurdat_atl main 199 184 O_____________ hurdat_atl AL111971 27.7000 -87.7000 TD 25 -1 3 323
1971247N28273 1971 108 NA GM FERN 1971-09-03 21:00:00 TS 27.8499 -87.8200 main 184 154 P_____________ AL111971 27.8499 -87.8200 TD 25 -1 4 319
1971247N28273 1971 108 NA GM FERN 1971-09-04 00:00:00 TS 28.0000 -88.0000 25 hurdat_atl main 154 127 O_____________ hurdat_atl AL111971 28.0000 -88.0000 TD 25 -1 5 300
1971247N28273 1971 108 NA GM FERN 1971-09-04 03:00:00 TS 28.0926 -88.2926 main 127 101 P_____________ AL111971 28.0926 -88.2926 TD 25 -1 6 291
1971247N28273 1971 108 NA GM FERN 1971-09-04 06:00:00 TS 28.2000 -88.6000 25 hurdat_atl main 101 73 O_____________ hurdat_atl AL111971 28.2000 -88.6000 TD 25 -1 6 302
1971247N28273 1971 108 NA GM FERN 1971-09-04 09:00:00 TS 28.3849 -88.8225 main 73 45 P_____________ AL111971 28.3849 -88.8225 TD 25 -1 5 319
1971247N28273 1971 108 NA GM FERN 1971-09-04 12:00:00 TS 28.6000 -89.0000 25 hurdat_atl main 45 22 O_____________ hurdat_atl AL111971 28.6000 -89.0000 TD 25 -1 5 324
1971247N28273 1971 108 NA GM FERN 1971-09-04 15:00:00 TS 28.7925 -89.1651 main 24 11 P_____________ AL111971 28.7925 -89.1651 TD 25 -1 5 327
1971247N28273 1971 108 NA GM FERN 1971-09-04 18:00:00 TS 29.0000 -89.3000 25 hurdat_atl main 11 0 O_____________ hurdat_atl AL111971 29.0000 -89.3000 TD 25 -1 5 334
1971247N28273 1971 108 NA NA FERN 1971-09-04 21:00:00 TS 29.2350 -89.4150 main 0 0 P_____________ AL111971 29.2350 -89.4150 TD 25 -1 5 341
1971247N28273 1971 108 NA GM FERN 1971-09-05 00:00:00 TS 29.5000 -89.5000 25 hurdat_atl main 0 0 O_____________ hurdat_atl AL111971 29.5000 -89.5000 TD 25 -1 6 348
1971247N28273 1971 108 NA GM FERN 1971-09-05 03:00:00 TS 29.7925 -89.5501 main 0 0 P_____________ AL111971 29.7925 -89.5501 TD 25 -1 6 352
1971247N28273 1971 108 NA GM FERN 1971-09-05 06:00:00 TS 30.1000 -89.6000 25 hurdat_atl main 11 0 O_____________ hurdat_atl AL111971 30.1000 -89.6000 TD 25 -1 7 349
1971247N28273 1971 108 NA NA FERN 1971-09-05 09:00:00 TS 30.4525 -89.6998 main 0 0 P_____________ AL111971 30.4525 -89.6998 TD 25 -1 6 344
1971247N28273 1971 108 NA NA FERN 1971-09-05 12:00:00 TS 30.7000 -89.8000 25 hurdat_atl main 0 0 O_____________ hurdat_atl AL111971 30.7000 -89.8000 TD 25 -1 3 333
1971247N28273 1971 108 NA NA FERN 1971-09-05 15:00:00 TS 30.7175 -89.8576 main 0 0 P_____________ AL111971 30.7175 -89.8576 TD 25 -1 1 220
1971247N28273 1971 108 NA NA FERN 1971-09-05 18:00:00 TS 30.6000 -89.9000 25 hurdat_atl main 0 0 O_____________ hurdat_atl AL111971 30.6000 -89.9000 TD 25 -1 3 195
1971247N28273 1971 108 NA NA FERN 1971-09-05 21:00:00 TS 30.4725 -89.9349 main 0 0 P_____________ AL111971 30.4725 -89.9349 TD 25 -1 3 196
1971247N28273 1971 108 NA GM FERN 1971-09-06 00:00:00 TS 30.3000 -90.0000 25 hurdat_atl main 9 9 O_____________ hurdat_atl AL111971 30.3000 -90.0000 TD 25 -1 4 206
1971247N28273 1971 108 NA GM FERN 1971-09-06 03:00:00 TS 30.1075 -90.1426 main 9 0 P_____________ AL111971 30.1075 -90.1426 TD 25 -1 5 213
1971247N28273 1971 108 NA NA FERN 1971-09-06 06:00:00 TS 29.9000 -90.3000 25 hurdat_atl main 0 0 O_____________ hurdat_atl AL111971 29.9000 -90.3000 TD 25 -1 5 207
1971247N28273 1971 108 NA NA FERN 1971-09-06 09:00:00 TS 29.7074 -90.3847 main 0 0 P_____________ AL111971 29.7074 -90.3847 TD 25 -1 4 203
1971247N28273 1971 108 NA NA FERN 1971-09-06 12:00:00 TS 29.5000 -90.5000 25 hurdat_atl main 0 0 O_____________ hurdat_atl AL111971 29.5000 -90.5000 TD 25 -1 6 214
1971247N28273 1971 108 NA NA FERN 1971-09-06 15:00:00 TS 29.2501 -90.7427 main 0 0 P_____________ AL111971 29.2501 -90.7427 TD 25 -1 7 221
1971247N28273 1971 108 NA GM FERN 1971-09-06 18:00:00 TS 29.0000 -91.0000 25 hurdat_atl main 14 14 O_____________ hurdat_atl AL111971 29.0000 -91.0000 TD 25 -1 6 219
1971247N28273 1971 108 NA GM FERN 1971-09-06 21:00:00 TS 28.7999 -91.1648 main 44 44 P_____________ AL111971 28.7999 -91.1648 TD 25 -1 5 213
1971247N28273 1971 108 NA GM FERN 1971-09-07 00:00:00 TS 28.6000 -91.3000 25 hurdat_atl main 68 68 O_____________ hurdat_atl AL111971 28.6000 -91.3000 TD 25 -1 5 208
1971247N28273 1971 108 NA GM FERN 1971-09-07 03:00:00 TS 28.3500 -91.4425 main 101 101 P_____________ AL111971 28.3500 -91.4425 TD 25 -1 6 208
1971247N28273 1971 108 NA GM FERN 1971-09-07 06:00:00 TS 28.1000 -91.6000 25 hurdat_atl main 130 130 O_____________ hurdat_atl AL111971 28.1000 -91.6000 TD 25 -1 6 215
1971247N28273 1971 108 NA GM FERN 1971-09-07 09:00:00 TS 27.8925 -91.8000 main 160 160 P_____________ AL111971 27.8925 -91.8000 TD 27 -1 5 221
1971247N28273 1971 108 NA GM FERN 1971-09-07 12:00:00 TS 27.7000 -92.0000 30 hurdat_atl main 189 189 O_____________ hurdat_atl AL111971 27.7000 -92.0000 TD 30 -1 5 219
1971247N28273 1971 108 NA GM FERN 1971-09-07 15:00:00 TS 27.5000 -92.1574 main 218 218 P_____________ AL111971 27.5000 -92.1574 TD 30 -1 5 214
1971247N28273 1971 108 NA GM FERN 1971-09-07 18:00:00 TS 27.3000 -92.3000 30 hurdat_atl main 242 242 O_____________ hurdat_atl AL111971 27.3000 -92.3000 TD 30 -1 5 213
1971247N28273 1971 108 NA GM FERN 1971-09-07 21:00:00 TS 27.0925 -92.4575 main 268 268 P_____________ AL111971 27.0925 -92.4575 TD 35 0 5 214
1971247N28273 1971 108 NA GM FERN 1971-09-08 00:00:00 TS 26.9000 -92.6000 40 1000 hurdat_atl main 291 291 O_____________ hurdat_atl AL111971 26.9000 -92.6000 TS 40 1000 0 4 211
1971247N28273 1971 108 NA GM FERN 1971-09-08 03:00:00 TS 26.7350 -92.6999 main 315 315 P_____________ AL111971 26.7350 -92.6999 TS 42 1000 0 4 210
1971247N28273 1971 108 NA GM FERN 1971-09-08 06:00:00 TS 26.6000 -92.8000 45 1000 hurdat_atl main 327 327 O_____________ hurdat_atl AL111971 26.6000 -92.8000 TS 45 1000 0 3 221
1971247N28273 1971 108 NA GM FERN 1971-09-08 09:00:00 TS 26.4850 -92.9425 main 340 340 P_____________ AL111971 26.4850 -92.9425 TS 47 1000 0 3 233
1971247N28273 1971 108 NA GM FERN 1971-09-08 12:00:00 TS 26.4000 -93.1000 50 1000 hurdat_atl main 354 350 O_____________ hurdat_atl AL111971 26.4000 -93.1000 TS 50 1000 0 3 240
1971247N28273 1971 108 NA GM FERN 1971-09-08 15:00:00 TS 26.3275 -93.2500 main 354 349 P_____________ AL111971 26.3275 -93.2500 TS 52 997 0 3 249
1971247N28273 1971 108 NA GM FERN 1971-09-08 18:00:00 TS 26.3000 -93.4000 55 995 hurdat_atl main 349 344 O_____________ hurdat_atl AL111971 26.3000 -93.4000 TS 55 995 0 3 268
1971247N28273 1971 108 NA GM FERN 1971-09-08 21:00:00 TS 26.3200 -93.5500 main 340 325 P_____________ AL111971 26.3200 -93.5500 TS 60 991 0 3 291
1971247N28273 1971 108 NA GM FERN 1971-09-09 00:00:00 TS 26.4000 -93.7000 65 987 hurdat_atl main 325 310 O_____________ hurdat_atl AL111971 26.4000 -93.7000 HU 65 987 1 3 308
1971247N28273 1971 108 NA GM FERN 1971-09-09 03:00:00 TS 26.5275 -93.8500 main 305 281 P_____________ AL111971 26.5275 -93.8500 HU 72 990 1 4 318
1971247N28273 1971 108 NA GM FERN 1971-09-09 06:00:00 TS 26.7000 -94.0000 80 993 hurdat_atl main 281 257 O_____________ hurdat_atl AL111971 26.7000 -94.0000 HU 80 993 1 5 323
1971247N28273 1971 108 NA GM FERN 1971-09-09 09:00:00 TS 26.8925 -94.1575 main 252 228 P_____________ AL111971 26.8925 -94.1575 HU 80 992 1 5 326
1971247N28273 1971 108 NA GM FERN 1971-09-09 12:00:00 TS 27.1000 -94.3000 80 992 hurdat_atl main 228 203 O_____________ hurdat_atl AL111971 27.1000 -94.3000 HU 80 992 1 5 332
1971247N28273 1971 108 NA GM FERN 1971-09-09 15:00:00 TS 27.2925 -94.4002 main 203 179 P_____________ AL111971 27.2925 -94.4002 HU 77 992 1 4 336
1971247N28273 1971 108 NA GM FERN 1971-09-09 18:00:00 TS 27.5000 -94.5000 75 992 hurdat_atl main 179 155 O_____________ hurdat_atl AL111971 27.5000 -94.5000 HU 75 992 1 5 336
1971247N28273 1971 108 NA GM FERN 1971-09-09 21:00:00 TS 27.7424 -94.6276 main 155 116 P_____________ AL111971 27.7424 -94.6276 HU 72 990 1 6 332
1971247N28273 1971 108 NA GM FERN 1971-09-10 00:00:00 TS 28.0000 -94.8000 70 988 hurdat_atl main 116 77 O_____________ hurdat_atl AL111971 28.0000 -94.8000 HU 70 988 1 6 327
1971247N28273 1971 108 NA GM FERN 1971-09-10 03:00:00 TS 28.2874 -95.0198 main 77 45 P_____________ AL111971 28.2874 -95.0198 HU 67 988 1 7 319
1971247N28273 1971 108 NA GM FERN 1971-09-10 06:00:00 TS 28.5000 -95.3000 65 988 hurdat_atl main 45 24 O_____________ hurdat_atl AL111971 28.5000 -95.3000 HU 65 988 1 6 296
1971247N28273 1971 108 NA GM FERN 1971-09-10 09:00:00 TS 28.5526 -95.6502 main 22 11 P_____________ AL111971 28.5526 -95.6502 HU 62 983 0 6 270
1971247N28273 1971 108 NA GM FERN 1971-09-10 12:00:00 TS 28.5000 -96.0000 60 979 hurdat_atl main 11 0 O_____________ hurdat_atl AL111971 28.5000 -96.0000 TS 60 979 0 6 257
1971247N28273 1971 108 NA GM FERN 1971-09-10 15:00:00 TS 28.4224 -96.2725 main 9 0 P_____________ AL111971 28.4224 -96.2725 TS 60 979 0 5 246
1971247N28273 1971 108 NA GM FERN 1971-09-10 18:00:00 TS 28.3000 -96.5000 60 979 hurdat_atl main 11 9 O_____________ hurdat_atl AL111971 28.3000 -96.5000 TS 60 979 0 5 235
1971247N28273 1971 108 NA GM FERN 1971-09-10 21:00:00 TS 28.1574 -96.7075 main 9 9 P_____________ AL111971 28.1574 -96.7075 TS 57 983 0 5 229
1971247N28273 1971 108 NA GM FERN 1971-09-11 00:00:00 TS 28.0000 -96.9000 55 988 hurdat_atl main 11 9 O_____________ hurdat_atl AL111971 28.0000 -96.9000 TS 55 988 0 5 228
1971247N28273 1971 108 NA GM FERN 1971-09-11 03:00:00 TS 27.8425 -97.1075 main 9 0 P_____________ AL111971 27.8425 -97.1075 TS 55 985 0 5 230
1971247N28273 1971 108 NA GM FERN 1971-09-11 06:00:00 TS 27.7000 -97.3000 55 983 hurdat_atl main 0 0 O_____________ hurdat_atl AL111971 27.7000 -97.3000 TS 55 983 0 4 231
1971247N28273 1971 108 NA NA FERN 1971-09-11 09:00:00 TS 27.5924 -97.4499 main 0 0 P_____________ AL111971 27.5924 -97.4499 TS 50 980 0 3 233
1971247N28273 1971 108 NA NA FERN 1971-09-11 12:00:00 TS 27.5000 -97.6000 45 978 hurdat_atl main 0 0 O_____________ hurdat_atl AL111971 27.5000 -97.6000 TS 45 978 0 4 238
1971247N28273 1971 108 NA NA FERN 1971-09-11 15:00:00 TS 27.4000 -97.7925 main 0 0 P_____________ AL111971 27.4000 -97.7925 TS 42 0 4 241
1971247N28273 1971 108 NA NA FERN 1971-09-11 18:00:00 TS 27.3000 -98.0000 40 hurdat_atl main 0 0 O_____________ hurdat_atl AL111971 27.3000 -98.0000 TS 40 0 4 239
1971247N28273 1971 108 NA NA FERN 1971-09-11 21:00:00 TS 27.1850 -98.2001 main 0 0 P_____________ AL111971 27.1850 -98.2001 TS 37 0 4 241
1971247N28273 1971 108 NA NA FERN 1971-09-12 00:00:00 TS 27.1000 -98.4000 35 hurdat_atl main 0 0 O_____________ hurdat_atl AL111971 27.1000 -98.4000 TS 35 0 4 255
1971247N28273 1971 108 NA NA FERN 1971-09-12 03:00:00 TS 27.0925 -98.5999 main 0 0 P_____________ AL111971 27.0925 -98.5999 TS 35 0 4 270
1971247N28273 1971 108 NA NA FERN 1971-09-12 06:00:00 TS 27.1000 -98.8000 35 hurdat_atl main 0 0 O_____________ hurdat_atl AL111971 27.1000 -98.8000 TS 35 0 4 264
1971247N28273 1971 108 NA NA FERN 1971-09-12 09:00:00 TS 27.0574 -98.9925 main 0 0 P_____________ AL111971 27.0574 -98.9925 TS 35 0 4 254
1971247N28273 1971 108 NA NA FERN 1971-09-12 12:00:00 TS 27.0000 -99.2000 35 hurdat_atl main 0 0 O_____________ hurdat_atl AL111971 27.0000 -99.2000 TS 35 0 4 254
1971247N28273 1971 108 NA NA FERN 1971-09-12 15:00:00 TS 26.9424 -99.4350 main 0 0 P_____________ AL111971 26.9424 -99.4350 TS 32 -1 5 257
1971247N28273 1971 108 NA NA FERN 1971-09-12 18:00:00 TS 26.9000 -99.7000 30 hurdat_atl main 0 0 O_____________ hurdat_atl AL111971 26.9000 -99.7000 TD 30 -1 5 264
1971247N28273 1971 108 NA NA FERN 1971-09-12 21:00:00 TS 26.8901 -99.9925 main 0 0 P_____________ AL111971 26.8901 -99.9925 TD 27 -1 5 270
1971247N28273 1971 108 NA NA FERN 1971-09-13 00:00:00 TS 26.9000 -100.300 25 hurdat_atl main 0 O_____________ hurdat_atl AL111971 26.9000 -100.300 TD 25 -1 5 272

About IBTrACS Database

This database is a web-friendly format of International Best Track Archive for Climate Stewardship (IBTrACS), a global best track data archive curated by NOAA dating back to 1842.

Updated: 2021-12-03